createdAt,value
2019-03-04T00:00:21.169Z,99193.14
2019-03-04T00:02:56.873Z,99188.13
2019-03-04T00:05:31.132Z,99197.94
2019-03-04T00:08:04.847Z,99189.77
2019-03-04T00:10:40.497Z,99178.22
2019-03-04T00:13:13.466Z,99160.17
2019-03-04T00:15:52.037Z,99165.80
2019-03-04T00:18:27.488Z,99177.19
2019-03-04T00:21:08.501Z,99176.66
2019-03-04T00:23:44.675Z,99175.67
2019-03-04T00:26:26.406Z,99167.00
2019-03-04T00:29:01.218Z,99162.19
2019-03-04T00:31:40.060Z,99160.91
2019-03-04T00:34:16.587Z,99166.38
2019-03-04T00:36:53.667Z,99162.02
2019-03-04T00:39:32.909Z,99144.27
2019-03-04T00:42:08.818Z,99144.84
2019-03-04T00:44:48.546Z,99149.73
2019-03-04T00:47:26.801Z,99156.84
2019-03-04T00:50:03.167Z,99144.10
2019-03-04T00:52:38.291Z,99143.81
2019-03-04T00:55:38.127Z,99154.01
2019-03-04T00:58:17.530Z,99151.55
2019-03-04T01:01:00.626Z,99144.43
2019-03-04T01:03:40.020Z,99142.00
2019-03-04T01:06:20.655Z,99142.78
2019-03-04T01:08:56.334Z,99134.64
2019-03-04T01:11:43.551Z,99137.11
2019-03-04T01:14:32.513Z,99132.84
2019-03-04T01:17:08.748Z,99118.30
2019-03-04T01:19:43.709Z,99117.31
2019-03-04T01:22:23.924Z,99120.23
2019-03-04T01:25:00.845Z,99109.30
2019-03-04T01:27:38.251Z,99101.45
2019-03-04T01:30:16.912Z,99103.13
2019-03-04T01:32:55.489Z,99101.98
2019-03-04T01:35:31.442Z,99093.72
2019-03-04T01:38:11.683Z,99092.98
2019-03-04T01:40:43.666Z,99094.25
2019-03-04T01:43:18.435Z,99080.66
2019-03-04T01:45:51.562Z,99083.62
2019-03-04T01:48:43.697Z,99078.91
2019-03-04T01:51:21.191Z,99065.80
2019-03-04T01:53:56.741Z,99046.91
2019-03-04T01:56:31.260Z,99048.55
2019-03-04T01:59:14.484Z,99048.84
2019-03-04T02:01:49.928Z,99031.63
2019-03-04T02:04:31.065Z,99026.16
2019-03-04T02:07:06.136Z,99012.16
2019-03-04T02:09:40.921Z,99013.56
2019-03-04T02:12:19.674Z,99008.27
2019-03-04T02:15:01.178Z,98993.33
2019-03-04T02:17:33.448Z,99002.19
2019-03-04T02:20:10.025Z,99007.53
2019-03-04T02:22:44.643Z,98990.94
2019-03-04T02:25:21.824Z,99002.84
2019-03-04T02:27:58.849Z,99006.12
2019-03-04T02:30:35.081Z,99000.02
2019-03-04T02:33:17.993Z,98983.96
2019-03-04T02:35:53.043Z,98983.72
2019-03-04T02:38:28.273Z,98965.36
2019-03-04T02:41:09.599Z,98955.17
2019-03-04T02:43:48.471Z,98949.52
2019-03-04T02:46:26.349Z,98939.66
2019-03-04T02:49:07.346Z,98932.34
2019-03-04T02:51:46.760Z,98928.89
2019-03-04T02:54:18.109Z,98922.61
2019-03-04T02:56:55.727Z,98921.80
2019-03-04T02:59:26.434Z,98916.95
2019-03-04T03:02:11.707Z,98903.88
2019-03-04T03:04:53.017Z,98905.36
2019-03-04T03:07:29.218Z,98908.50
2019-03-04T03:10:03.854Z,98890.67
2019-03-04T03:12:41.292Z,98892.88
2019-03-04T03:15:18.790Z,98885.61
2019-03-04T03:17:58.533Z,98866.33
2019-03-04T03:20:37.506Z,98863.83
2019-03-04T03:23:14.098Z,98851.52
2019-03-04T03:25:49.823Z,98848.91
2019-03-04T03:28:24.710Z,98833.64
2019-03-04T03:31:02.374Z,98828.36
2019-03-04T03:33:32.865Z,98811.08
2019-03-04T03:36:09.404Z,98805.99
2019-03-04T03:38:47.992Z,98800.89
2019-03-04T03:41:21.532Z,98787.25
2019-03-04T03:43:57.798Z,98791.25
2019-03-04T03:46:38.363Z,98789.70
2019-03-04T03:49:12.482Z,98789.25
2019-03-04T03:51:48.827Z,98777.52
2019-03-04T03:54:26.513Z,98773.06
2019-03-04T03:57:05.610Z,98782.16
2019-03-04T03:59:42.828Z,98768.14
2019-03-04T04:02:16.536Z,98758.50
2019-03-04T04:04:54.178Z,98757.23
2019-03-04T04:07:28.238Z,98762.87
2019-03-04T04:10:20.287Z,98757.50
2019-03-04T04:12:58.182Z,98737.03
2019-03-04T04:15:42.210Z,98742.48
2019-03-04T04:18:19.721Z,98741.22
2019-03-04T04:21:03.845Z,98741.94
2019-03-04T04:23:49.349Z,98715.56
2019-03-04T04:26:31.564Z,98714.91
2019-03-04T04:29:09.042Z,98710.81
2019-03-04T04:31:48.583Z,98707.08
2019-03-04T04:34:38.362Z,98689.52
2019-03-04T04:37:13.192Z,98691.98
2019-03-04T04:39:51.298Z,98692.34
2019-03-04T04:42:37.391Z,98692.80
2019-03-04T04:45:10.422Z,98694.72
2019-03-04T04:47:46.989Z,98683.34
2019-03-04T04:50:27.555Z,98660.77
2019-03-04T04:53:05.969Z,98638.56
2019-03-04T04:55:41.617Z,98626.45
2019-03-04T04:58:19.927Z,98619.36
2019-03-04T05:00:51.850Z,98621.09
2019-03-04T05:03:28.769Z,98625.45
2019-03-04T05:06:01.142Z,98612.25
2019-03-04T05:08:34.577Z,98601.44
2019-03-04T05:11:12.875Z,98597.06
2019-03-04T05:13:55.935Z,98574.31
2019-03-04T05:16:32.024Z,98571.96
2019-03-04T05:19:09.223Z,98569.52
2019-03-04T05:21:55.941Z,98547.42
2019-03-04T05:24:29.688Z,98550.36
2019-03-04T05:27:13.974Z,98534.81
2019-03-04T05:29:56.549Z,98538.80
2019-03-04T05:32:30.898Z,98529.69
2019-03-04T05:35:04.911Z,98512.31
2019-03-04T05:37:40.250Z,98506.11
2019-03-04T05:40:14.949Z,98493.28
2019-03-04T05:42:49.367Z,98472.44
2019-03-04T05:45:31.369Z,98465.52
2019-03-04T05:48:08.966Z,98461.86
2019-03-04T05:50:53.519Z,98450.65
2019-03-04T05:53:32.243Z,98451.63
2019-03-04T05:56:06.350Z,98448.06
2019-03-04T05:58:46.811Z,98440.77
2019-03-04T06:01:34.130Z,98434.56
2019-03-04T06:04:23.717Z,98416.52
2019-03-04T06:07:18.233Z,98407.50
2019-03-04T06:09:52.312Z,98401.53
2019-03-04T06:12:42.176Z,98393.43
2019-03-04T06:15:18.255Z,98389.25
2019-03-04T06:17:51.797Z,98383.23
2019-03-04T06:20:38.358Z,98371.20
2019-03-04T06:23:25.272Z,98360.55
2019-03-04T06:26:10.135Z,98357.08
2019-03-04T06:28:45.135Z,98364.78
2019-03-04T06:31:25.942Z,98354.83
2019-03-04T06:34:10.701Z,98343.97
2019-03-04T06:36:47.315Z,98346.20
2019-03-04T06:39:26.606Z,98337.73
2019-03-04T06:42:06.263Z,98324.84
2019-03-04T06:44:45.789Z,98313.52
2019-03-04T06:47:24.614Z,98318.90
2019-03-04T06:50:01.900Z,98313.27
2019-03-04T06:52:42.076Z,98303.45
2019-03-04T06:56:16.500Z,98303.48
2019-03-04T06:59:00.526Z,98309.86
2019-03-04T07:01:42.115Z,98293.85
2019-03-04T07:04:24.112Z,98294.42
2019-03-04T07:07:02.833Z,98281.45
2019-03-04T07:09:41.451Z,98271.28
2019-03-04T07:12:15.155Z,98274.33
2019-03-04T07:14:55.221Z,98262.77
2019-03-04T07:17:38.026Z,98261.08
2019-03-04T07:20:28.213Z,98246.81
2019-03-04T07:23:10.006Z,98244.64
2019-03-04T07:25:53.951Z,98256.77
2019-03-04T07:28:35.415Z,98243.89
2019-03-04T07:31:14.463Z,98223.01
2019-03-04T07:33:53.753Z,98212.92
2019-03-04T07:36:35.001Z,98208.63
2019-03-04T07:39:28.342Z,98207.63
2019-03-04T07:42:11.256Z,98180.48
2019-03-04T07:44:49.571Z,98189.89
2019-03-04T07:47:24.810Z,98182.24
2019-03-04T07:50:01.588Z,98168.31
2019-03-04T07:52:43.788Z,98157.75
2019-03-04T07:55:15.564Z,98153.11
2019-03-04T07:57:52.020Z,98155.43
2019-03-04T08:00:24.960Z,98153.69
2019-03-04T08:03:00.961Z,98135.58
2019-03-04T08:05:34.250Z,98127.57
2019-03-04T08:08:16.341Z,98119.20
2019-03-04T08:11:25.690Z,98107.94
2019-03-04T08:14:10.349Z,98112.11
2019-03-04T08:16:48.205Z,98092.47
2019-03-04T08:19:30.536Z,98094.20
2019-03-04T08:22:06.716Z,98083.72
2019-03-04T08:24:49.944Z,98076.80
2019-03-04T08:27:23.135Z,98073.80
2019-03-04T08:30:07.794Z,98056.48
2019-03-04T08:32:39.859Z,98054.23
2019-03-04T08:35:20.006Z,98045.90
2019-03-04T08:37:57.096Z,98032.47
2019-03-04T08:40:39.143Z,98137.73
2019-03-04T08:43:21.025Z,98221.38
2019-03-04T08:45:53.258Z,98182.73
2019-03-04T08:48:27.166Z,98160.64
2019-03-04T08:51:02.247Z,98142.27
2019-03-04T08:53:34.780Z,98151.48
2019-03-04T08:56:06.213Z,98175.15
2019-03-04T08:58:44.822Z,98165.79
2019-03-04T09:01:20.396Z,98170.83
2019-03-04T09:03:52.357Z,98158.50
2019-03-04T09:06:30.872Z,98168.19
2019-03-04T09:09:09.182Z,98148.87
2019-03-04T09:11:47.186Z,98138.75
2019-03-04T09:14:21.710Z,98131.59
2019-03-04T09:16:56.334Z,98139.11
2019-03-04T09:19:29.013Z,98127.88
2019-03-04T09:22:00.259Z,98142.05
2019-03-04T09:24:32.119Z,98131.83
2019-03-04T09:27:11.374Z,98144.67
2019-03-04T09:29:46.807Z,98135.16
2019-03-04T09:32:25.721Z,98130.62
2019-03-04T09:35:09.727Z,98122.35
2019-03-04T09:37:44.498Z,98131.22
2019-03-04T09:40:18.776Z,98146.52
2019-03-04T09:42:56.783Z,98134.63
2019-03-04T09:45:38.737Z,98124.55
2019-03-04T09:48:14.877Z,98130.88
2019-03-04T09:50:53.507Z,98125.98
2019-03-04T09:53:39.388Z,98129.34
2019-03-04T09:56:12.316Z,98114.14
2019-03-04T09:58:53.134Z,98104.63
2019-03-04T10:01:47.216Z,98113.42
2019-03-04T10:05:19.597Z,98121.98
2019-03-04T10:08:18.172Z,98123.16
2019-03-04T10:11:14.738Z,98117.65
2019-03-04T10:14:37.575Z,98113.62
2019-03-04T10:17:52.906Z,98104.17
2019-03-04T10:21:24.686Z,98103.22
2019-03-04T10:24:38.188Z,98106.64
2019-03-04T10:28:03.760Z,98114.72
2019-03-04T10:31:03.420Z,98102.57
2019-03-04T10:34:27.278Z,98104.56
2019-03-04T10:37:53.388Z,98100.20
2019-03-04T10:41:16.354Z,98100.58
2019-03-04T10:44:25.284Z,98086.88
2019-03-04T10:47:02.461Z,98082.09
2019-03-04T10:49:44.012Z,98056.03
2019-03-04T10:52:17.247Z,98067.16
2019-03-04T10:54:56.249Z,98094.76
2019-03-04T10:57:29.058Z,98079.50
2019-03-04T11:00:03.478Z,98078.78
2019-03-04T11:02:38.716Z,98077.88
2019-03-04T11:05:15.639Z,98079.87
2019-03-04T11:07:53.291Z,98080.77
2019-03-04T11:10:26.073Z,98090.44
2019-03-04T11:13:05.102Z,98091.45
2019-03-04T11:15:40.442Z,98100.90
2019-03-04T11:18:17.832Z,98116.66
2019-03-04T11:21:00.800Z,98128.17
2019-03-04T11:23:38.454Z,98140.59
2019-03-04T11:26:12.545Z,98148.18
2019-03-04T11:28:45.756Z,98147.72
2019-03-04T11:31:20.479Z,98145.08
2019-03-04T11:33:55.308Z,98132.77
2019-03-04T11:36:30.072Z,98135.67
2019-03-04T11:40:06.136Z,98147.44
2019-03-04T11:42:38.099Z,98145.61
2019-03-04T11:45:18.763Z,98155.20
2019-03-04T11:47:52.473Z,98154.49
2019-03-04T11:50:28.698Z,98154.31
2019-03-04T11:53:08.136Z,98160.84
2019-03-04T11:55:41.766Z,98160.94
2019-03-04T11:58:18.284Z,98163.11
2019-03-04T12:00:56.309Z,98175.52
2019-03-04T12:03:29.018Z,98167.00
2019-03-04T12:06:07.197Z,98164.10
2019-03-04T12:08:40.826Z,98161.92
2019-03-04T12:11:14.119Z,98171.89
2019-03-04T12:13:48.334Z,98163.81
2019-03-04T12:16:32.660Z,98183.84
2019-03-04T12:19:05.057Z,98161.45
2019-03-04T12:21:40.532Z,98182.19
2019-03-04T12:24:18.787Z,98170.17
2019-03-04T12:26:52.100Z,98171.09
2019-03-04T12:29:26.977Z,98179.62
2019-03-04T12:32:20.985Z,98169.56
2019-03-04T12:35:04.034Z,98175.53
2019-03-04T12:37:40.788Z,98178.98
2019-03-04T12:40:19.205Z,98172.61
2019-03-04T12:43:05.725Z,98176.05
2019-03-04T12:45:41.021Z,98178.23
2019-03-04T12:48:15.065Z,98174.80
2019-03-04T12:50:48.021Z,98160.31
2019-03-04T12:53:36.836Z,98169.56
2019-03-04T12:56:00.852Z,98168.14
2019-03-04T12:58:33.762Z,98169.41
2019-03-04T13:01:09.205Z,98168.69
2019-03-04T13:03:43.919Z,98166.88
2019-03-04T13:06:17.138Z,98175.33
2019-03-04T13:08:54.718Z,98166.34
2019-03-04T13:11:28.637Z,98165.52
2019-03-04T13:14:10.942Z,98172.16
2019-03-04T13:16:47.181Z,98163.53
2019-03-04T13:19:39.543Z,98156.91
2019-03-04T13:22:21.675Z,98159.08
2019-03-04T13:24:52.470Z,98156.42
2019-03-04T13:27:27.500Z,98151.41
2019-03-04T13:30:00.284Z,98152.53
2019-03-04T13:32:42.699Z,98151.27
2019-03-04T13:35:24.701Z,98154.89
2019-03-04T13:37:57.377Z,98152.72
2019-03-04T13:40:37.935Z,98125.67
2019-03-04T13:43:11.391Z,98139.37
2019-03-04T13:45:53.604Z,98148.36
2019-03-04T13:48:31.640Z,98152.44
2019-03-04T13:51:13.129Z,98144.73
2019-03-04T13:53:48.929Z,98144.19
2019-03-04T13:56:37.559Z,98137.78
2019-03-04T13:59:13.649Z,98139.14
2019-03-04T14:01:50.470Z,98140.39
2019-03-04T14:04:39.818Z,98145.46
2019-03-04T14:07:17.945Z,98124.80
2019-03-04T14:09:58.612Z,98131.77
2019-03-04T14:12:39.265Z,98128.05
2019-03-04T14:15:16.154Z,98120.08
2019-03-04T14:18:06.721Z,98119.44
2019-03-04T14:20:40.941Z,98115.16
2019-03-04T14:23:21.903Z,98122.50
2019-03-04T14:25:59.848Z,98113.54
2019-03-04T14:28:41.432Z,98121.44
2019-03-04T14:31:25.789Z,98126.30
2019-03-04T14:36:48.244Z,98124.22
2019-03-04T14:39:24.621Z,98124.22
2019-03-04T14:42:00.466Z,98121.24
2019-03-04T14:44:36.800Z,98113.02
2019-03-04T14:47:25.933Z,98118.36
2019-03-04T14:50:09.239Z,98124.30
2019-03-04T14:52:42.617Z,98107.23
2019-03-04T14:55:23.797Z,98110.47
2019-03-04T14:58:08.558Z,98114.67
2019-03-04T15:00:53.628Z,98111.80
2019-03-04T15:03:30.950Z,98107.63
2019-03-04T15:06:08.213Z,98093.30
2019-03-04T15:08:55.533Z,98118.56
2019-03-04T15:11:45.363Z,98089.61
2019-03-04T15:14:36.723Z,98099.94
2019-03-04T15:17:28.146Z,98106.38
2019-03-04T15:20:09.678Z,98079.73
2019-03-04T15:22:51.176Z,98092.31
2019-03-04T15:25:35.406Z,98098.64
2019-03-04T15:28:47.724Z,98098.64
2019-03-04T15:31:26.296Z,98096.59
2019-03-04T15:34:06.956Z,98105.59
2019-03-04T15:36:47.499Z,98110.98
2019-03-04T15:39:24.221Z,98118.30
2019-03-04T15:42:06.492Z,98117.66
2019-03-04T15:44:45.283Z,98120.80
2019-03-04T15:47:20.006Z,98120.72
2019-03-04T15:50:05.435Z,98141.13
2019-03-04T15:52:33.235Z,98118.27
2019-03-04T15:55:12.548Z,98128.68
2019-03-04T15:57:51.909Z,98118.96
2019-03-04T16:00:34.678Z,98124.55
2019-03-04T16:03:19.488Z,98133.16
2019-03-04T16:05:57.137Z,98137.20
2019-03-04T16:08:43.920Z,98133.25
2019-03-04T16:11:28.812Z,98132.19
2019-03-04T16:14:14.496Z,98123.70
2019-03-04T16:16:49.229Z,98144.88
2019-03-04T16:19:25.180Z,98149.41
2019-03-04T16:22:05.436Z,98146.52
2019-03-04T16:24:51.182Z,98143.66
2019-03-04T16:27:34.029Z,98151.46
2019-03-04T16:30:07.245Z,98139.55
2019-03-04T16:33:09.299Z,98161.18
2019-03-04T16:35:49.336Z,98177.92
2019-03-04T16:38:25.991Z,98173.22
2019-03-04T16:41:01.469Z,98180.81
2019-03-04T16:43:37.766Z,98187.42
2019-03-04T16:46:10.197Z,98183.79
2019-03-04T16:48:46.706Z,98202.25
2019-03-04T16:51:22.529Z,98187.59
2019-03-04T16:54:06.320Z,98212.50
2019-03-04T16:56:44.323Z,98201.76
2019-03-04T16:59:21.557Z,98217.32
2019-03-04T17:01:57.206Z,98232.72
2019-03-04T17:04:36.126Z,98240.52
2019-03-04T17:07:42.094Z,98242.69
2019-03-04T17:10:22.776Z,98227.86
2019-03-04T17:13:03.646Z,98262.50
2019-03-04T17:15:43.067Z,98265.35
2019-03-04T17:18:24.756Z,98268.70
2019-03-04T17:20:57.150Z,98281.31
2019-03-04T17:23:38.000Z,98265.52
2019-03-04T17:26:11.914Z,98267.83
2019-03-04T17:28:52.171Z,98273.34
2019-03-04T17:31:36.588Z,98284.16
2019-03-04T17:34:18.076Z,98293.02
2019-03-04T17:37:00.820Z,98315.36
2019-03-04T17:39:38.933Z,98333.08
2019-03-04T17:42:22.887Z,98320.34
2019-03-04T17:45:04.427Z,98326.75
2019-03-04T17:47:50.898Z,98314.59
2019-03-04T17:50:32.793Z,98346.03
2019-03-04T17:53:09.810Z,98367.85
2019-03-04T17:55:50.070Z,98369.56
2019-03-04T17:58:30.975Z,98375.16
2019-03-04T18:01:06.358Z,98400.92
2019-03-04T18:03:45.066Z,98388.63
2019-03-04T18:06:20.299Z,98416.86
2019-03-04T18:09:07.909Z,98394.30
2019-03-04T18:11:44.057Z,98378.42
2019-03-04T18:14:29.366Z,98419.91
2019-03-04T18:17:08.498Z,98432.13
2019-03-04T18:19:55.313Z,98425.27
2019-03-04T18:22:27.777Z,98429.30
2019-03-04T18:25:03.631Z,98451.19
2019-03-04T18:27:59.533Z,98428.55
2019-03-04T18:31:05.740Z,98440.61
2019-03-04T18:34:07.068Z,98459.08
2019-03-04T18:37:27.677Z,98476.81
2019-03-04T18:40:33.710Z,98469.21
2019-03-04T18:43:26.966Z,98467.65
2019-03-04T18:46:33.019Z,98494.01
2019-03-04T18:49:09.475Z,98493.27
2019-03-04T18:52:01.821Z,98485.81
2019-03-04T18:54:33.186Z,98486.94
2019-03-04T18:57:08.937Z,98494.91
2019-03-04T18:59:45.301Z,98506.38
2019-03-04T19:02:23.919Z,98511.06
2019-03-04T19:04:52.811Z,98507.79
2019-03-04T19:07:32.042Z,98539.81
2019-03-04T19:10:12.197Z,98515.69
2019-03-04T19:12:52.839Z,98526.48
2019-03-04T19:15:29.794Z,98555.22
2019-03-04T19:18:12.757Z,98551.65
2019-03-04T19:20:51.279Z,98551.95
2019-03-04T19:23:26.341Z,98564.68
2019-03-04T19:26:04.420Z,98570.05
2019-03-04T19:28:54.918Z,98566.41
2019-03-04T19:31:37.886Z,98574.88
2019-03-04T19:34:18.300Z,98588.95
2019-03-04T19:37:02.651Z,98590.00
2019-03-04T19:39:41.986Z,98586.95
2019-03-04T19:42:14.879Z,98598.81
2019-03-04T19:44:48.573Z,98611.92
2019-03-04T19:47:19.822Z,98601.20
2019-03-04T19:49:59.668Z,98599.93
2019-03-04T19:52:33.879Z,98624.08
2019-03-04T19:55:09.639Z,98621.41
2019-03-04T19:57:45.799Z,98626.84
2019-03-04T20:00:32.094Z,98619.02
2019-03-04T20:03:04.569Z,98657.02
2019-03-04T20:05:38.990Z,98635.56
2019-03-04T20:08:17.667Z,98670.51
2019-03-04T20:10:56.633Z,98671.33
2019-03-04T20:13:37.533Z,98674.31
2019-03-04T20:16:18.738Z,98663.66
2019-03-04T20:18:54.433Z,98691.01
2019-03-04T20:21:29.982Z,98693.16
2019-03-04T20:24:04.503Z,98703.23
2019-03-04T20:26:38.509Z,98695.70
2019-03-04T20:29:15.800Z,98708.30
2019-03-04T20:31:50.878Z,98705.91
2019-03-04T20:34:24.225Z,98704.19
2019-03-04T20:37:07.046Z,98715.22
2019-03-04T20:39:39.539Z,98722.81
2019-03-04T20:42:16.101Z,98738.63
2019-03-04T20:44:53.270Z,98723.36
2019-03-04T20:47:27.389Z,98740.20
2019-03-04T20:50:00.264Z,98746.84
2019-03-04T20:52:37.858Z,98731.64
2019-03-04T20:55:09.421Z,98747.14
2019-03-04T20:57:43.113Z,98762.28
2019-03-04T21:00:27.786Z,98766.83
2019-03-04T21:03:01.123Z,98770.11
2019-03-04T21:05:37.548Z,98759.16
2019-03-04T21:08:13.802Z,98755.66
2019-03-04T21:10:51.186Z,98776.17
2019-03-04T21:13:35.006Z,98772.51
2019-03-04T21:16:01.515Z,98778.02
2019-03-04T21:18:35.577Z,98792.03
2019-03-04T21:21:09.373Z,98774.67
2019-03-04T21:23:40.823Z,98801.41
2019-03-04T21:26:31.340Z,98780.39
2019-03-04T21:30:05.991Z,98790.16
2019-03-04T21:33:05.943Z,98806.63
2019-03-04T21:36:08.162Z,98825.49
2019-03-04T21:38:46.581Z,98797.75
2019-03-04T21:41:42.088Z,98836.14
2019-03-04T21:44:51.123Z,98825.49
2019-03-04T21:47:37.442Z,98846.34
2019-03-04T21:50:14.578Z,98830.49
2019-03-04T21:53:24.293Z,98803.67
2019-03-04T21:56:14.337Z,98848.61
2019-03-04T21:58:58.383Z,98860.22
2019-03-04T22:01:46.216Z,98855.45
2019-03-04T22:04:24.969Z,98866.17
2019-03-04T22:07:00.183Z,98868.27
2019-03-04T22:09:38.591Z,98856.38
2019-03-04T22:12:16.594Z,98882.92
2019-03-04T22:14:52.411Z,98848.98
2019-03-04T22:17:28.923Z,98880.66
2019-03-04T22:20:09.017Z,98888.32
2019-03-04T22:22:45.978Z,98902.70
2019-03-04T22:25:20.282Z,98901.56
2019-03-04T22:28:07.361Z,98905.88
2019-03-04T22:30:49.398Z,98910.76
2019-03-04T22:33:18.013Z,98904.48
2019-03-04T22:35:53.245Z,98916.84
2019-03-04T22:38:26.763Z,98929.95
2019-03-04T22:41:13.517Z,98927.42
2019-03-04T22:44:04.369Z,98929.06
2019-03-04T22:46:40.989Z,98940.53
2019-03-04T22:49:24.710Z,98954.90
2019-03-04T22:51:58.225Z,98948.95
2019-03-04T22:54:34.392Z,98949.01
2019-03-04T22:57:15.769Z,98952.43
2019-03-04T22:59:50.527Z,98976.05
2019-03-04T23:02:32.923Z,98967.62
2019-03-04T23:05:13.919Z,98975.67
2019-03-04T23:07:53.828Z,98982.95
2019-03-04T23:10:42.724Z,98990.48
2019-03-04T23:13:52.847Z,98966.99
2019-03-04T23:16:39.903Z,98990.48
2019-03-04T23:19:15.303Z,98995.74
2019-03-04T23:21:48.903Z,98994.41
2019-03-04T23:24:34.383Z,99005.23
2019-03-04T23:27:21.911Z,99008.91
2019-03-04T23:30:05.341Z,99017.84
2019-03-04T23:32:59.968Z,99025.43
2019-03-04T23:35:48.467Z,99017.45
2019-03-04T23:38:30.702Z,99018.78
2019-03-04T23:41:06.184Z,99023.91
2019-03-04T23:43:41.269Z,99023.59
2019-03-04T23:46:15.736Z,99017.95
2019-03-04T23:48:55.684Z,99030.56
2019-03-04T23:51:28.665Z,99025.37
2019-03-04T23:54:01.349Z,99021.76
2019-03-04T23:56:35.665Z,99028.47
2019-03-04T23:59:09.061Z,99028.15
